Time;durP1;ratioP1;P1;durP2;ratioP2;P2;SDS_P1;SDS_P2;PMS_P1;PMS_P2;Temp;Humidity;BMP_temperature;BMP_pressure;BME280_temperature;BME280_humidity;BME280_pressure;Samples;Min_cycle;Max_cycle;Signal;HPM_P1;HPM_P2
2022/09/09 00:01:47;;;;;;;2.47;1.17;;;16.00;99.90;;;;;;5054807;28;20206;-57
2022/09/09 00:04:22;;;;;;;4.70;1.10;;;15.90;99.90;;;;;;5055023;28;20215;-57
2022/09/09 00:07:02;;;;;;;1.90;1.20;;;15.90;99.90;;;;;;5053763;28;20206;-58
2022/09/09 00:09:31;;;;;;;2.53;1.10;;;15.90;99.90;;;;;;5054722;28;20214;-56
2022/09/09 00:12:05;;;;;;;2.33;0.97;;;15.90;99.90;;;;;;5053966;28;20220;-58
2022/09/09 00:14:40;;;;;;;3.17;0.90;;;15.90;99.90;;;;;;5053964;28;20698;-57
2022/09/09 00:17:13;;;;;;;5.20;1.20;;;16.10;99.90;;;;;;5053957;28;20208;-57
2022/09/09 00:19:50;;;;;;;2.37;1.00;;;16.20;99.90;;;;;;5054047;28;20260;-57
2022/09/09 00:22:18;;;;;;;1.90;1.03;;;16.20;99.90;;;;;;5053596;28;20237;-56
2022/09/09 00:24:47;;;;;;;1.70;1.00;;;16.20;99.90;;;;;;5054072;28;20213;-57
2022/09/09 00:27:22;;;;;;;3.50;1.17;;;16.20;99.90;;;;;;5053531;28;20219;-57
2022/09/09 00:29:57;;;;;;;2.22;1.00;;;16.20;99.90;;;;;;5053743;28;20209;-57
2022/09/09 00:32:29;;;;;;;2.20;0.93;;;16.20;99.90;;;;;;5053782;28;20225;-57
2022/09/09 00:35:02;;;;;;;2.33;1.40;;;16.20;99.90;;;;;;5053611;28;20205;-57
2022/09/09 00:37:31;;;;;;;2.25;1.10;;;16.20;99.90;;;;;;5054113;28;20214;-57
2022/09/09 00:40:02;;;;;;;2.80;1.10;;;16.30;99.90;;;;;;5054252;28;20228;-56
2022/09/09 00:42:38;;;;;;;5.73;1.00;;;16.20;99.90;;;;;;5054070;28;20225;-56
2022/09/09 00:45:20;;;;;;;2.20;1.03;;;16.20;99.90;;;;;;5053568;28;20209;-57
2022/09/09 00:47:50;;;;;;;4.47;1.50;;;16.10;99.90;;;;;;5053250;28;20201;-57
2022/09/09 00:50:46;;;;;;;3.33;1.27;;;16.10;99.90;;;;;;5053328;28;20205;-58
2022/09/09 00:53:29;;;;;;;2.53;1.20;;;16.10;99.90;;;;;;5053347;28;20237;-58
2022/09/09 00:56:05;;;;;;;2.60;1.10;;;16.20;99.90;;;;;;5052945;28;20205;-56
2022/09/09 00:58:31;;;;;;;2.28;1.27;;;16.20;99.90;;;;;;5053206;28;20205;-57
2022/09/09 01:01:06;;;;;;;2.90;0.95;;;16.20;99.90;;;;;;5053210;28;20206;-56
2022/09/09 01:03:36;;;;;;;3.63;0.95;;;16.30;99.90;;;;;;5052834;28;20221;-56
2022/09/09 01:06:14;;;;;;;2.67;0.80;;;16.30;99.90;;;;;;5052656;28;20220;-56
2022/09/09 01:09:03;;;;;;;3.93;1.00;;;16.40;99.90;;;;;;5053422;28;20205;-57
2022/09/09 01:11:37;;;;;;;3.33;1.13;;;16.50;99.90;;;;;;5053276;28;20209;-57
2022/09/09 01:14:14;;;;;;;2.40;1.40;;;16.60;99.90;;;;;;5053161;28;20279;-57
2022/09/09 01:16:42;;;;;;;3.00;1.03;;;16.70;99.90;;;;;;5052565;28;20205;-58
2022/09/09 01:19:19;;;;;;;9.13;1.35;;;16.80;99.90;;;;;;5053140;28;20577;-57
2022/09/09 01:21:56;;;;;;;3.72;1.23;;;16.90;99.90;;;;;;5052764;28;20213;-57
2022/09/09 01:24:32;;;;;;;2.78;1.05;;;16.90;99.90;;;;;;5053051;28;20205;-57
2022/09/09 01:27:03;;;;;;;2.92;1.02;;;17.00;99.90;;;;;;5052810;28;20209;-57
2022/09/09 01:29:30;;;;;;;1.88;1.13;;;17.20;99.90;;;;;;5053393;28;20210;-57
2022/09/09 01:31:58;;;;;;;2.40;1.08;;;17.20;99.90;;;;;;5053323;28;20238;-57
2022/09/09 01:34:27;;;;;;;5.53;1.25;;;17.30;99.90;;;;;;5053141;28;20594;-57
2022/09/09 01:36:58;;;;;;;1.05;0.80;;;17.30;99.90;;;;;;5053110;28;20206;-57
2022/09/09 01:39:26;;;;;;;3.70;1.20;;;17.30;99.90;;;;;;5053080;28;20212;-57
2022/09/09 01:41:53;;;;;;;1.98;1.08;;;17.30;99.90;;;;;;5053051;28;20212;-57
2022/09/09 01:44:22;;;;;;;1.85;1.17;;;17.40;99.90;;;;;;5053050;28;20209;-57
2022/09/09 01:46:49;;;;;;;4.78;1.30;;;17.40;99.90;;;;;;5052424;28;20201;-57
2022/09/09 01:49:17;;;;;;;2.50;0.98;;;17.50;99.90;;;;;;5052657;28;20198;-57
2022/09/09 01:51:47;;;;;;;3.38;1.30;;;17.60;99.90;;;;;;5052703;28;20205;-57
2022/09/09 01:54:14;;;;;;;3.58;1.27;;;17.70;99.90;;;;;;5052825;28;20232;-57
2022/09/09 01:56:51;;;;;;;3.33;1.00;;;17.80;99.90;;;;;;5052491;28;20201;-57
2022/09/09 01:59:43;;;;;;;2.50;0.77;;;17.80;99.90;;;;;;5052535;28;20213;-57
2022/09/09 02:02:14;;;;;;;2.17;0.80;;;17.90;99.90;;;;;;5052414;28;20226;-57
2022/09/09 02:04:43;;;;;;;3.25;0.90;;;18.10;99.90;;;;;;5052162;28;20209;-58
2022/09/09 02:07:29;;;;;;;3.33;1.02;;;18.10;99.90;;;;;;5051924;28;20205;-59
2022/09/09 02:10:01;;;;;;;2.63;0.98;;;18.20;99.90;;;;;;5052258;28;20591;-57
2022/09/09 02:12:31;;;;;;;2.53;0.80;;;18.20;99.90;;;;;;5052143;28;20236;-57
2022/09/09 02:15:04;;;;;;;1.90;0.98;;;18.30;99.90;;;;;;5052022;28;20611;-57
2022/09/09 02:17:36;;;;;;;5.05;1.10;;;18.30;99.90;;;;;;5051837;28;20635;-56
2022/09/09 02:20:08;;;;;;;3.78;1.15;;;18.30;99.90;;;;;;5052290;28;20319;-57
2022/09/09 02:22:39;;;;;;;3.42;0.95;;;18.30;99.90;;;;;;5052247;28;20237;-57
2022/09/09 02:25:09;;;;;;;4.95;1.23;;;18.30;99.90;;;;;;5052447;28;20201;-56
2022/09/09 02:27:36;;;;;;;2.75;1.40;;;18.20;99.90;;;;;;5052112;28;20205;-57
2022/09/09 02:30:05;;;;;;;4.00;1.17;;;18.10;99.90;;;;;;5055269;28;20209;-56
2022/09/09 02:32:35;;;;;;;5.40;1.30;;;18.00;99.90;;;;;;5055936;28;20229;-57
2022/09/09 02:35:07;;;;;;;2.03;0.70;;;17.90;99.90;;;;;;5056050;28;20278;-57
2022/09/09 02:37:38;;;;;;;1.77;0.93;;;17.90;99.90;;;;;;5055746;28;20209;-57
2022/09/09 02:40:05;;;;;;;6.05;1.70;;;17.80;99.90;;;;;;5055787;28;20273;-57
2022/09/09 02:42:32;;;;;;;3.13;1.08;;;17.70;99.90;;;;;;5055794;28;20233;-56
2022/09/09 02:44:59;;;;;;;3.55;1.00;;;17.60;99.90;;;;;;5056040;28;20204;-57
2022/09/09 02:47:36;;;;;;;4.80;1.20;;;17.60;99.90;;;;;;5055765;28;20213;-57
2022/09/09 02:50:12;;;;;;;2.85;1.30;;;17.40;99.90;;;;;;5055645;28;20209;-57
2022/09/09 02:52:48;;;;;;;2.20;1.00;;;17.40;99.90;;;;;;5055445;28;20316;-57
2022/09/09 02:55:22;;;;;;;2.05;1.00;;;17.40;99.90;;;;;;5055586;28;20237;-56
2022/09/09 02:57:50;;;;;;;2.55;0.88;;;17.40;99.90;;;;;;5055457;28;20201;-57
2022/09/09 03:00:24;;;;;;;3.58;0.85;;;17.40;99.90;;;;;;5055474;28;20212;-57
2022/09/09 03:02:53;;;;;;;3.58;1.20;;;17.50;99.90;;;;;;5055186;28;20226;-57
2022/09/09 03:05:20;;;;;;;3.20;1.58;;;17.40;99.90;;;;;;5055643;28;20255;-57
2022/09/09 03:07:46;;;;;;;9.38;5.78;;;17.40;99.90;;;;;;5055550;28;20201;-57
2022/09/09 03:10:13;;;;;;;3.85;2.05;;;17.40;99.90;;;;;;5055344;28;20224;-57
2022/09/09 03:12:40;;;;;;;4.68;1.42;;;17.40;99.90;;;;;;5055299;28;20233;-57
2022/09/09 03:15:08;;;;;;;3.75;1.27;;;17.40;99.90;;;;;;5055474;28;20225;-57
2022/09/09 03:17:35;;;;;;;4.60;1.48;;;17.30;99.90;;;;;;5055051;28;20572;-57
2022/09/09 03:20:04;;;;;;;3.10;1.53;;;17.30;99.90;;;;;;5055626;28;20231;-57
2022/09/09 03:22:31;;;;;;;39.28;29.80;;;17.30;99.90;;;;;;5054424;28;20265;-57
2022/09/09 03:24:58;;;;;;;3.08;1.98;;;17.20;99.90;;;;;;5055134;28;20575;-57
2022/09/09 03:27:24;;;;;;;3.45;1.67;;;17.20;99.90;;;;;;5055054;28;20300;-57
2022/09/09 03:29:51;;;;;;;2.42;1.40;;;17.10;99.90;;;;;;5055367;28;20622;-56
2022/09/09 03:32:19;;;;;;;4.32;2.58;;;17.00;99.90;;;;;;5054766;28;20234;-56
2022/09/09 03:34:47;;;;;;;3.67;0.90;;;17.00;99.90;;;;;;5055074;28;20606;-56
2022/09/09 03:37:15;;;;;;;8.23;5.90;;;16.90;99.90;;;;;;5054687;28;20210;-57
2022/09/09 03:39:42;;;;;;;4.75;1.30;;;16.80;99.90;;;;;;5053954;28;20221;-56
2022/09/09 03:42:09;;;;;;;4.75;2.08;;;16.80;99.90;;;;;;5054097;28;20232;-57
2022/09/09 03:44:35;;;;;;;7.50;2.72;;;16.80;99.90;;;;;;5054009;28;20661;-57
2022/09/09 03:47:02;;;;;;;6.80;1.40;;;16.80;99.90;;;;;;5054240;28;20209;-56
2022/09/09 03:49:29;;;;;;;2.50;1.00;;;16.80;99.90;;;;;;5054431;28;20212;-56
2022/09/09 03:51:57;;;;;;;2.03;1.15;;;16.70;99.90;;;;;;5054916;28;20212;-56
2022/09/09 03:54:25;;;;;;;6.32;1.58;;;16.80;99.90;;;;;;5054518;28;20694;-56
2022/09/09 03:56:52;;;;;;;2.42;1.30;;;16.80;99.90;;;;;;5054292;28;20590;-57
2022/09/09 03:59:20;;;;;;;5.22;1.80;;;16.80;99.90;;;;;;5054219;28;20616;-56
2022/09/09 04:01:47;;;;;;;2.33;1.17;;;16.80;99.90;;;;;;5054137;28;20251;-57
2022/09/09 04:04:13;;;;;;;4.93;2.00;;;16.90;99.90;;;;;;5054178;28;20205;-57
2022/09/09 04:06:40;;;;;;;2.20;0.80;;;16.90;99.90;;;;;;5053809;28;20209;-56
2022/09/09 04:09:07;;;;;;;1.17;0.85;;;17.00;99.90;;;;;;5054016;28;20575;-57
2022/09/09 04:11:36;;;;;;;2.63;1.05;;;17.00;99.90;;;;;;5054055;28;20209;-57
2022/09/09 04:14:04;;;;;;;2.30;1.33;;;17.00;99.90;;;;;;5053874;28;20230;-57
2022/09/09 04:16:30;;;;;;;2.58;0.90;;;17.00;99.90;;;;;;5054148;28;20248;-57
2022/09/09 04:18:57;;;;;;;2.75;1.20;;;17.00;99.90;;;;;;5054369;28;20212;-57
2022/09/09 04:21:24;;;;;;;2.85;0.95;;;16.90;99.90;;;;;;5054404;28;20213;-57
2022/09/09 04:23:51;;;;;;;3.00;0.70;;;17.00;99.90;;;;;;5072596;22;20222;-61
2022/09/09 04:26:19;;;;;;;3.88;1.02;;;17.00;99.90;;;;;;5042679;28;20241;-62
2022/09/09 04:28:47;;;;;;;1.58;0.95;;;17.00;99.90;;;;;;5035863;28;20206;-61
2022/09/09 04:31:18;;;;;;;3.20;0.90;;;17.10;99.90;;;;;;5038631;28;20241;-62
2022/09/09 04:33:45;;;;;;;6.63;4.80;;;17.20;99.90;;;;;;5035348;28;20314;-61
2022/09/09 04:36:12;;;;;;;2.35;1.33;;;17.30;99.90;;;;;;5032783;28;20202;-65
2022/09/09 04:38:39;;;;;;;2.35;1.05;;;17.30;99.90;;;;;;5033447;28;20213;-61
2022/09/09 04:41:07;;;;;;;6.15;2.08;;;17.30;99.90;;;;;;5032929;28;20226;-62
2022/09/09 04:43:34;;;;;;;1.45;0.80;;;17.40;99.90;;;;;;5032728;28;20230;-62
2022/09/09 04:46:02;;;;;;;3.33;0.80;;;17.40;99.90;;;;;;5032553;28;20567;-62
2022/09/09 04:48:28;;;;;;;2.97;1.10;;;17.50;99.90;;;;;;5032634;28;20581;-62
2022/09/09 04:50:57;;;;;;;4.78;1.30;;;17.50;99.90;;;;;;5032414;28;20210;-62
2022/09/09 04:53:25;;;;;;;2.75;1.13;;;17.60;99.90;;;;;;5032071;28;20230;-62
2022/09/09 04:55:52;;;;;;;4.95;1.92;;;17.50;99.90;;;;;;5032577;28;20577;-62
2022/09/09 04:58:21;;;;;;;2.63;1.30;;;17.70;99.90;;;;;;5032413;28;20202;-65
2022/09/09 05:00:48;;;;;;;2.13;1.00;;;17.70;99.90;;;;;;5032500;28;20252;-61
2022/09/09 05:03:16;;;;;;;3.05;0.98;;;17.80;99.90;;;;;;5032164;28;20227;-69
2022/09/09 05:05:44;;;;;;;2.35;0.90;;;17.80;99.90;;;;;;5032231;28;20206;-65
2022/09/09 05:08:11;;;;;;;2.22;0.90;;;17.90;99.90;;;;;;5032208;28;20234;-66
2022/09/09 05:10:41;;;;;;;4.30;1.00;;;17.90;99.90;;;;;;5032550;28;20585;-64
2022/09/09 05:13:08;;;;;;;4.07;0.93;;;17.90;99.90;;;;;;5032164;28;20540;-64
2022/09/09 05:15:36;;;;;;;2.33;1.42;;;17.90;99.90;;;;;;5032025;28;20605;-65
2022/09/09 05:18:03;;;;;;;3.50;1.25;;;17.80;99.90;;;;;;5032031;28;20238;-65
2022/09/09 05:20:31;;;;;;;3.33;1.00;;;17.70;99.90;;;;;;5031961;28;20252;-64
2022/09/09 05:22:58;;;;;;;2.83;1.08;;;17.60;99.90;;;;;;5031878;28;20324;-64
2022/09/09 05:25:25;;;;;;;6.40;1.25;;;17.60;99.90;;;;;;5031282;28;20214;-64
2022/09/09 05:27:53;;;;;;;3.47;1.55;;;17.70;99.90;;;;;;5030949;28;20206;-64
2022/09/09 05:30:20;;;;;;;1.90;0.85;;;17.80;99.90;;;;;;5031298;28;20565;-64
2022/09/09 05:32:48;;;;;;;1.85;1.00;;;18.00;99.90;;;;;;5031023;28;20701;-64
2022/09/09 05:35:16;;;;;;;2.55;1.02;;;18.10;99.90;;;;;;5030995;28;20226;-64
2022/09/09 05:37:45;;;;;;;3.35;1.10;;;18.20;99.90;;;;;;5030846;28;20293;-64
2022/09/09 05:40:12;;;;;;;3.47;1.27;;;18.30;99.90;;;;;;5031009;28;20213;-65
2022/09/09 05:42:39;;;;;;;2.55;1.20;;;18.40;99.90;;;;;;5030903;28;20230;-65
2022/09/09 05:45:08;;;;;;;3.22;0.98;;;18.50;99.90;;;;;;5031177;28;20237;-65
2022/09/09 05:47:35;;;;;;;6.05;1.95;;;18.60;99.90;;;;;;5030602;28;20206;-65
2022/09/09 05:50:02;;;;;;;2.90;1.15;;;18.60;99.90;;;;;;5031005;28;20214;-65
2022/09/09 05:52:28;;;;;;;2.45;1.33;;;18.70;99.90;;;;;;5030991;28;20212;-65
2022/09/09 05:54:57;;;;;;;4.45;1.70;;;18.80;99.90;;;;;;5030642;28;20219;-65
2022/09/09 05:57:23;;;;;;;1.92;0.80;;;18.90;99.90;;;;;;5030543;28;20569;-65
2022/09/09 05:59:50;;;;;;;2.30;1.02;;;19.10;99.90;;;;;;5030960;28;20206;-65
2022/09/09 06:02:17;;;;;;;2.00;0.82;;;19.20;99.90;;;;;;5030836;28;20264;-64
2022/09/09 06:04:44;;;;;;;3.92;1.40;;;19.30;99.90;;;;;;5033130;28;20666;-64
2022/09/09 06:07:10;;;;;;;1.75;1.00;;;19.40;99.90;;;;;;5034231;28;20205;-65
2022/09/09 06:09:37;;;;;;;2.75;1.10;;;19.40;99.90;;;;;;5034457;28;20621;-65
2022/09/09 06:12:06;;;;;;;3.58;1.30;;;19.50;99.90;;;;;;5034363;28;20206;-65
2022/09/09 06:14:32;;;;;;;5.07;1.13;;;19.50;99.90;;;;;;5033994;28;20222;-66
2022/09/09 06:16:59;;;;;;;1.77;0.90;;;19.50;99.90;;;;;;5034039;28;20618;-64
2022/09/09 06:19:26;;;;;;;1.40;0.70;;;19.50;99.90;;;;;;5035212;28;20229;-65
2022/09/09 06:21:53;;;;;;;4.85;1.65;;;19.70;99.90;;;;;;5034648;28;20212;-65
2022/09/09 06:24:20;;;;;;;4.88;1.33;;;19.90;99.90;;;;;;5000097;28;1033707;-64
2022/09/09 06:26:46;;;;;;;1.65;0.95;;;20.10;99.90;;;;;;5035667;28;20217;-64
2022/09/09 06:29:14;;;;;;;4.13;1.27;;;20.30;99.90;;;;;;5036151;28;20206;-64
2022/09/09 06:31:41;;;;;;;2.78;1.10;;;20.40;99.90;;;;;;5036629;28;20638;-64
2022/09/09 06:34:09;;;;;;;5.55;1.08;;;20.50;99.90;;;;;;5036822;28;20222;-64
2022/09/09 06:36:37;;;;;;;1.90;0.90;;;20.70;99.90;;;;;;5035225;28;20280;-65
2022/09/09 06:39:04;;;;;;;2.92;1.10;;;20.80;99.90;;;;;;5035241;28;20658;-65
2022/09/09 06:41:32;;;;;;;2.20;1.25;;;20.80;99.90;;;;;;5035122;28;20222;-61
2022/09/09 06:44:00;;;;;;;4.40;1.42;;;20.80;99.90;;;;;;5035015;28;20241;-62
2022/09/09 06:46:30;;;;;;;2.13;1.00;;;20.90;99.90;;;;;;5034522;28;20206;-61
2022/09/09 06:48:59;;;;;;;2.95;1.08;;;20.90;99.90;;;;;;5035003;28;20210;-61
2022/09/09 06:51:27;;;;;;;3.10;1.10;;;21.00;99.90;;;;;;5035083;28;20203;-60
2022/09/09 06:53:56;;;;;;;5.53;2.13;;;21.00;99.90;;;;;;5034801;28;20254;-61
2022/09/09 06:56:24;;;;;;;5.70;1.20;;;21.10;99.90;;;;;;5034286;28;20226;-61
2022/09/09 06:58:51;;;;;;;3.80;1.80;;;21.30;99.90;;;;;;5034844;28;20206;-62
2022/09/09 07:01:20;;;;;;;2.35;1.13;;;21.50;99.90;;;;;;5034833;28;20214;-61
2022/09/09 07:03:49;;;;;;;3.10;1.00;;;21.60;99.90;;;;;;5034597;28;20237;-61
2022/09/09 07:06:19;;;;;;;3.70;1.20;;;21.80;99.90;;;;;;5034686;28;20821;-61
2022/09/09 07:08:49;;;;;;;4.80;1.00;;;21.70;99.90;;;;;;5034478;28;20213;-62
2022/09/09 07:11:16;;;;;;;2.97;1.02;;;21.80;99.90;;;;;;5034623;28;20210;-61
2022/09/09 07:13:43;;;;;;;2.33;1.10;;;21.90;99.90;;;;;;5034202;28;20276;-60
2022/09/09 07:16:12;;;;;;;2.40;1.13;;;21.90;99.90;;;;;;5034047;28;20241;-61
2022/09/09 07:18:39;;;;;;;3.50;1.10;;;22.10;99.90;;;;;;5034133;28;20213;-61
2022/09/09 07:21:08;;;;;;;2.25;1.00;;;22.20;99.90;;;;;;5034418;28;20272;-61
2022/09/09 07:23:35;;;;;;;4.13;1.33;;;22.30;99.90;;;;;;5033807;28;20230;-61
2022/09/09 07:26:02;;;;;;;2.22;1.00;;;22.50;99.90;;;;;;5034128;28;20202;-62
2022/09/09 07:28:30;;;;;;;4.45;0.95;;;22.60;99.90;;;;;;5033479;28;20696;-61
2022/09/09 07:30:59;;;;;;;5.68;1.40;;;22.90;99.90;;;;;;5037995;28;20686;-63
2022/09/09 07:33:26;;;;;;;8.57;1.70;;;23.10;99.90;;;;;;5052515;28;20606;-63
2022/09/09 07:35:54;;;;;;;5.63;1.10;;;23.30;99.90;;;;;;5052727;28;20225;-62
2022/09/09 07:38:22;;;;;;;2.63;1.23;;;23.50;99.90;;;;;;5052719;28;20290;-61
2022/09/09 07:40:49;;;;;;;2.95;1.20;;;23.60;99.90;;;;;;5053086;28;20643;-60
2022/09/09 07:43:17;;;;;;;4.70;1.05;;;23.90;99.90;;;;;;5053318;28;20607;-63
2022/09/09 07:45:43;;;;;;;5.32;1.10;;;24.30;99.90;;;;;;5053240;28;20561;-62
2022/09/09 07:48:10;;;;;;;2.53;1.13;;;24.50;99.90;;;;;;5053074;28;20205;-62
2022/09/09 07:50:37;;;;;;;2.28;0.90;;;24.70;99.90;;;;;;5052644;28;20619;-65
2022/09/09 07:53:06;;;;;;;2.38;1.13;;;24.70;99.90;;;;;;5053700;28;20225;-61
2022/09/09 07:55:34;;;;;;;3.03;1.05;;;24.70;99.90;;;;;;5053594;28;20709;-60
2022/09/09 07:58:00;;;;;;;2.50;1.10;;;24.80;99.90;;;;;;5053861;28;20209;-62
2022/09/09 08:00:28;;;;;;;3.53;1.30;;;25.00;99.90;;;;;;5053610;28;20213;-62
2022/09/09 08:02:55;;;;;;;2.45;1.02;;;25.20;99.90;;;;;;5053795;28;20257;-62
2022/09/09 08:05:22;;;;;;;4.45;1.08;;;25.30;99.90;;;;;;5053867;28;20232;-61
2022/09/09 08:07:48;;;;;;;6.90;1.25;;;25.40;99.80;;;;;;5053081;28;20640;-62
2022/09/09 08:10:15;;;;;;;3.75;1.40;;;25.50;99.70;;;;;;5053692;28;20214;-63
2022/09/09 08:12:43;;;;;;;3.95;1.27;;;25.60;99.10;;;;;;5053264;28;20599;-60
2022/09/09 08:15:10;;;;;;;5.22;2.38;;;25.80;98.50;;;;;;5052897;28;20226;-59
2022/09/09 08:17:37;;;;;;;2.67;1.10;;;25.90;98.30;;;;;;5052752;28;20213;-61
2022/09/09 08:20:06;;;;;;;2.45;1.00;;;25.70;98.20;;;;;;5053496;28;20626;-59
2022/09/09 08:22:34;;;;;;;1.50;0.88;;;25.40;98.60;;;;;;5053046;28;20255;-60
2022/09/09 08:25:02;;;;;;;1.73;1.08;;;25.20;99.10;;;;;;5053164;28;20217;-60
2022/09/09 08:27:28;;;;;;;2.92;0.98;;;25.00;99.30;;;;;;5052944;28;20209;-61
2022/09/09 08:29:56;;;;;;;3.63;1.10;;;25.10;99.10;;;;;;5053896;28;20700;-66
2022/09/09 08:32:23;;;;;;;4.32;2.05;;;25.10;98.80;;;;;;5053181;28;20296;-60
2022/09/09 08:34:51;;;;;;;4.15;1.00;;;25.00;98.90;;;;;;5053001;28;20379;-60
2022/09/09 08:37:17;;;;;;;3.60;1.20;;;24.60;99.20;;;;;;5052466;28;20214;-59
2022/09/09 08:39:44;;;;;;;2.47;1.10;;;24.30;99.80;;;;;;5052625;28;20301;-59
2022/09/09 08:42:35;;;;;;;4.97;1.20;;;24.10;99.90;;;;;;5052694;28;20205;-59
2022/09/09 08:45:22;;;;;;;2.33;0.98;;;23.90;99.90;;;;;;5048399;28;20236;-60
2022/09/09 08:48:04;;;;;;;7.32;1.30;;;23.70;99.90;;;;;;5052576;28;20224;-60
2022/09/09 08:50:35;;;;;;;4.95;1.33;;;23.60;99.90;;;;;;5052526;28;20668;-60
2022/09/09 08:53:05;;;;;;;2.65;1.05;;;23.60;99.90;;;;;;5052641;28;20229;-60
2022/09/09 08:55:42;;;;;;;2.95;1.20;;;23.60;99.90;;;;;;5052824;28;20235;-60
2022/09/09 08:58:14;;;;;;;5.15;1.30;;;23.70;99.90;;;;;;5052315;28;20209;-60
2022/09/09 09:00:55;;;;;;;3.63;1.00;;;23.80;99.90;;;;;;5052460;28;20273;-60
2022/09/09 09:03:29;;;;;;;3.08;1.00;;;24.10;99.90;;;;;;5052263;28;20287;-60
2022/09/09 09:06:05;;;;;;;2.25;0.88;;;24.40;99.90;;;;;;5052620;28;20283;-60
2022/09/09 09:08:40;;;;;;;6.32;1.20;;;24.70;99.90;;;;;;5052019;28;20637;-60
2022/09/09 09:11:07;;;;;;;3.22;1.10;;;24.70;99.90;;;;;;5052231;28;20692;-60
2022/09/09 09:13:41;;;;;;;4.40;1.40;;;24.80;99.90;;;;;;5052457;28;20257;-60
2022/09/09 09:16:28;;;;;;;1.65;1.15;;;25.00;99.70;;;;;;5052509;28;20328;-60
2022/09/09 09:18:55;;;;;;;7.10;1.00;;;25.10;99.30;;;;;;5051722;28;20681;-60
2022/09/09 09:21:32;;;;;;;2.63;0.85;;;25.30;98.90;;;;;;5052139;28;20288;-60
2022/09/09 09:24:01;;;;;;;2.60;0.98;;;25.30;98.60;;;;;;5052165;28;20233;-60
2022/09/09 09:26:33;;;;;;;2.53;1.00;;;25.30;98.50;;;;;;5051756;28;20205;-60
2022/09/09 09:29:02;;;;;;;2.75;1.00;;;25.40;98.40;;;;;;5051909;28;20210;-60
2022/09/09 09:31:31;;;;;;;3.35;1.05;;;25.50;98.40;;;;;;5051791;28;20221;-60
2022/09/09 09:33:58;;;;;;;3.17;1.15;;;25.50;98.50;;;;;;5051802;28;20236;-59
2022/09/09 09:36:34;;;;;;;3.03;1.15;;;25.60;98.10;;;;;;5051815;28;20240;-60
2022/09/09 09:39:03;;;;;;;5.05;1.13;;;25.60;97.90;;;;;;5051372;28;20225;-59
2022/09/09 09:41:32;;;;;;;5.32;1.15;;;25.70;97.60;;;;;;5051658;28;20206;-59
2022/09/09 09:44:00;;;;;;;2.80;1.02;;;25.70;97.30;;;;;;5051400;28;20599;-59
2022/09/09 09:46:27;;;;;;;4.55;1.20;;;25.70;97.40;;;;;;5051707;28;20205;-61
2022/09/09 09:49:05;;;;;;;3.38;1.05;;;25.60;97.20;;;;;;5051581;28;20209;-60
2022/09/09 09:51:33;;;;;;;2.33;0.90;;;25.50;95.80;;;;;;5051895;28;20217;-60
2022/09/09 09:54:18;;;;;;;3.60;0.95;;;25.20;94.40;;;;;;5051538;28;20224;-60
2022/09/09 09:56:47;;;;;;;5.25;1.15;;;25.00;94.20;;;;;;5051470;28;20312;-60
2022/09/09 09:59:33;;;;;;;6.13;1.27;;;24.80;93.90;;;;;;5051487;28;20571;-60
2022/09/09 10:02:14;;;;;;;3.58;2.33;;;24.90;93.60;;;;;;5051745;28;20682;-61
2022/09/09 10:04:42;;;;;;;3.50;1.38;;;24.90;93.10;;;;;;5053494;28;20209;-58
2022/09/09 10:07:12;;;;;;;3.35;0.90;;;24.90;91.90;;;;;;5052801;28;20204;-61
2022/09/09 10:09:40;;;;;;;2.38;0.70;;;25.00;91.30;;;;;;5052735;28;20631;-59
2022/09/09 10:12:17;;;;;;;4.07;0.63;;;25.20;89.60;;;;;;5051621;28;20209;-59
2022/09/09 10:14:51;;;;;;;1.95;0.60;;;25.30;86.60;;;;;;5051436;28;20236;-59
2022/09/09 10:17:26;;;;;;;2.28;0.85;;;25.20;85.50;;;;;;5051144;28;20229;-61
2022/09/09 10:20:11;;;;;;;2.67;0.80;;;25.00;86.00;;;;;;5051278;28;20204;-59
2022/09/09 10:25:33;;;;;;;1.73;0.85;;;24.80;83.30;;;;;;5090524;28;20227;-53
2022/09/09 10:28:24;;;;;;;1.83;0.60;;;24.60;85.70;;;;;;5065435;28;20319;-55
2022/09/09 10:30:59;;;;;;;3.60;0.70;;;24.50;87.70;;;;;;5072176;28;20262;-54
2022/09/09 10:33:33;;;;;;;5.28;0.90;;;24.50;88.00;;;;;;5072399;28;20285;-55
2022/09/09 10:36:07;;;;;;;7.40;1.08;;;24.50;86.50;;;;;;5072089;28;20748;-55
2022/09/09 10:38:40;;;;;;;2.92;1.10;;;24.40;86.60;;;;;;5071912;28;20251;-56
2022/09/09 10:41:21;;;;;;;7.55;1.13;;;24.40;87.20;;;;;;5072218;28;20209;-59
2022/09/09 10:44:18;;;;;;;3.35;1.38;;;24.40;88.30;;;;;;5072509;28;20229;-52
2022/09/09 10:47:16;;;;;;;3.05;0.90;;;24.50;90.00;;;;;;5071404;28;20208;-53
2022/09/09 10:50:13;;;;;;;3.85;1.10;;;24.70;90.40;;;;;;5072387;28;20208;-56
2022/09/09 10:52:50;;;;;;;3.50;0.68;;;24.90;90.20;;;;;;5075378;28;20205;-54
2022/09/09 10:55:19;;;;;;;2.10;0.77;;;25.30;89.90;;;;;;5075274;28;20664;-56
2022/09/09 10:57:48;;;;;;;3.60;0.60;;;25.50;88.50;;;;;;5074552;28;20232;-54
2022/09/09 11:00:19;;;;;;;4.40;0.98;;;25.70;88.40;;;;;;5074852;28;20212;-54
2022/09/09 11:02:50;;;;;;;3.10;0.80;;;25.80;88.80;;;;;;5074932;28;20212;-54
2022/09/09 11:05:20;;;;;;;4.03;1.00;;;25.80;87.50;;;;;;5074895;28;20229;-54
2022/09/09 11:07:53;;;;;;;2.42;0.60;;;25.90;86.70;;;;;;5075134;28;20201;-54
2022/09/09 11:10:28;;;;;;;2.65;1.00;;;26.00;86.70;;;;;;5074352;28;20292;-54
2022/09/09 11:13:00;;;;;;;2.08;0.90;;;26.10;85.70;;;;;;5075032;28;20565;-55
2022/09/09 11:15:32;;;;;;;5.10;2.50;;;26.20;87.10;;;;;;5074579;28;20205;-53
2022/09/09 11:18:02;;;;;;;3.50;1.13;;;26.40;87.30;;;;;;5074223;28;20692;-55
2022/09/09 11:20:29;;;;;;;5.38;1.00;;;26.70;87.10;;;;;;5074501;28;20563;-55
2022/09/09 11:23:01;;;;;;;3.03;1.20;;;27.00;86.50;;;;;;5074097;28;20201;-53
2022/09/09 11:25:36;;;;;;;5.18;1.08;;;27.30;85.20;;;;;;5074704;28;20201;-55
2022/09/09 11:28:29;;;;;;;2.83;0.90;;;27.50;84.50;;;;;;5074458;28;20200;-56
2022/09/09 11:31:12;;;;;;;4.47;1.27;;;27.50;84.80;;;;;;5074373;28;20212;-53
2022/09/09 11:33:54;;;;;;;3.00;0.82;;;27.50;84.50;;;;;;5074563;28;20259;-53
2022/09/09 11:36:44;;;;;;;4.45;1.60;;;27.50;83.00;;;;;;5072583;28;20229;-58
2022/09/09 11:39:38;;;;;;;3.95;1.40;;;27.80;82.90;;;;;;5086816;28;20196;-57
2022/09/09 11:42:16;;;;;;;4.72;0.95;;;27.80;83.10;;;;;;5073229;28;20240;-58
2022/09/09 11:44:43;;;;;;;12.70;1.85;;;27.40;85.70;;;;;;5073394;28;20231;-58
2022/09/09 11:47:21;;;;;;;9.68;1.60;;;26.60;87.80;;;;;;5072155;28;20205;-56
2022/09/09 11:49:48;;;;;;;5.50;1.25;;;25.80;92.50;;;;;;5071443;28;20200;-55
2022/09/09 11:52:25;;;;;;;9.10;1.85;;;25.00;93.70;;;;;;5072889;28;20624;-57
2022/09/09 11:54:56;;;;;;;5.28;1.30;;;24.50;95.00;;;;;;5072160;28;20239;-53
2022/09/09 11:57:31;;;;;;;4.03;1.02;;;24.10;96.10;;;;;;5070981;28;20319;-55
2022/09/09 11:59:59;;;;;;;3.63;1.02;;;23.70;96.20;;;;;;5071178;28;20209;-55
2022/09/09 12:02:29;;;;;;;6.30;1.13;;;23.40;97.80;;;;;;5071529;28;20205;-55
2022/09/09 12:05:01;;;;;;;3.38;1.35;;;23.20;99.20;;;;;;5073095;28;20220;-56
2022/09/09 12:07:35;;;;;;;2.40;1.23;;;23.00;99.50;;;;;;5073818;28;20201;-55
2022/09/09 12:10:20;;;;;;;2.10;0.90;;;23.00;99.90;;;;;;5074062;28;20204;-52
2022/09/09 12:12:46;;;;;;;3.85;1.10;;;23.00;99.40;;;;;;5073520;28;20673;-54
2022/09/09 12:15:28;;;;;;;6.07;1.00;;;23.10;99.00;;;;;;5073674;28;20232;-53
2022/09/09 12:17:56;;;;;;;7.85;1.77;;;23.20;99.90;;;;;;5073725;28;20234;-54
2022/09/09 12:20:31;;;;;;;2.97;1.15;;;23.50;99.40;;;;;;5073920;28;20573;-52
2022/09/09 12:23:23;;;;;;;2.28;0.82;;;23.90;98.10;;;;;;5074296;28;20227;-55
2022/09/09 12:25:59;;;;;;;2.28;0.82;;;24.40;96.10;;;;;;5074114;28;20201;-54
2022/09/09 12:28:40;;;;;;;2.08;0.80;;;24.70;95.50;;;;;;5074239;28;20546;-53
2022/09/09 12:31:13;;;;;;;1.70;0.50;;;24.60;95.40;;;;;;5074064;28;20204;-54
2022/09/09 12:33:47;;;;;;;2.15;0.60;;;24.50;95.50;;;;;;5073251;28;20311;-55
2022/09/09 12:36:17;;;;;;;1.88;0.60;;;24.40;94.90;;;;;;5073240;28;20204;-52
2022/09/09 12:38:45;;;;;;;2.25;0.80;;;24.50;94.40;;;;;;5073025;28;20208;-54
2022/09/09 12:41:21;;;;;;;1.42;0.60;;;24.40;93.30;;;;;;5073294;28;20208;-54
2022/09/09 12:43:50;;;;;;;2.85;0.95;;;24.30;93.20;;;;;;5073079;28;20735;-53
2022/09/09 12:46:31;;;;;;;2.28;0.65;;;24.10;93.60;;;;;;5073054;28;20634;-54
2022/09/09 12:48:58;;;;;;;1.23;0.50;;;24.10;93.80;;;;;;5073133;28;20300;-54
2022/09/09 12:51:28;;;;;;;0.77;0.40;;;24.10;93.70;;;;;;5073180;28;20204;-56
2022/09/09 12:53:56;;;;;;;1.80;0.50;;;24.20;92.60;;;;;;5073112;28;20224;-54
2022/09/09 12:56:27;;;;;;;2.95;0.70;;;24.40;92.60;;;;;;5072789;28;20274;-55
2022/09/09 12:58:55;;;;;;;2.08;0.47;;;24.60;91.70;;;;;;5072467;28;20200;-55
2022/09/09 13:01:24;;;;;;;1.70;0.60;;;24.80;91.00;;;;;;5072703;28;20262;-53
2022/09/09 13:03:51;;;;;;;1.33;0.65;;;25.00;90.70;;;;;;5072635;28;20231;-56
2022/09/09 13:06:23;;;;;;;2.03;1.00;;;25.00;90.10;;;;;;5072742;28;20209;-54
2022/09/09 13:08:50;;;;;;;2.05;0.50;;;25.20;90.00;;;;;;5072264;28;20262;-55